createdAt,value
2019-03-24T00:00:02.452Z,98321.27
2019-03-24T00:02:30.938Z,98323.42
2019-03-24T00:04:59.396Z,98324.27
2019-03-24T00:07:27.820Z,98325.11
2019-03-24T00:09:56.262Z,98318.68
2019-03-24T00:12:24.744Z,98326.83
2019-03-24T00:14:53.143Z,98321.23
2019-03-24T00:17:21.574Z,98318.20
2019-03-24T00:19:49.982Z,98316.87
2019-03-24T00:22:18.545Z,98319.03
2019-03-24T00:24:46.997Z,98318.99
2019-03-24T00:27:15.428Z,98325.83
2019-03-24T00:29:43.823Z,98316.34
2019-03-24T00:32:12.291Z,98318.91
2019-03-24T00:34:40.689Z,98310.33
2019-03-24T00:37:09.110Z,98311.16
2019-03-24T00:39:37.539Z,98312.45
2019-03-24T00:42:05.961Z,98308.59
2019-03-24T00:44:34.496Z,98311.16
2019-03-24T00:47:02.949Z,98313.34
2019-03-24T00:49:31.362Z,98309.48
2019-03-24T00:51:59.888Z,98306.93
2019-03-24T00:54:28.334Z,98282.21
2019-03-24T00:56:56.770Z,98311.29
2019-03-24T00:59:25.217Z,98307.86
2019-03-24T01:01:53.647Z,98307.91
2019-03-24T01:04:22.090Z,98301.94
2019-03-24T01:06:50.753Z,98300.67
2019-03-24T01:09:19.223Z,98294.27
2019-03-24T01:11:47.696Z,98298.58
2019-03-24T01:14:16.126Z,98286.58
2019-03-24T01:16:44.522Z,98284.03
2019-03-24T01:19:12.909Z,98284.48
2019-03-24T01:21:41.290Z,98284.95
2019-03-24T01:24:09.740Z,98279.38
2019-03-24T01:26:38.220Z,98279.84
2019-03-24T01:29:06.716Z,98280.69
2019-03-24T01:31:35.113Z,98276.00
2019-03-24T01:34:03.505Z,98277.29
2019-03-24T01:36:31.960Z,98273.89
2019-03-24T01:39:00.366Z,98279.91
2019-03-24T01:41:28.747Z,98270.92
2019-03-24T01:43:57.174Z,98272.23
2019-03-24T01:46:25.638Z,98249.66
2019-03-24T01:48:54.105Z,98276.56
2019-03-24T01:51:22.496Z,98272.73
2019-03-24T01:53:50.899Z,98275.76
2019-03-24T01:56:19.314Z,98273.22
2019-03-24T01:58:47.810Z,98263.36
2019-03-24T02:01:16.830Z,98266.00
2019-03-24T02:03:45.295Z,98260.45
2019-03-24T02:06:13.717Z,98263.03
2019-03-24T02:08:42.104Z,98252.31
2019-03-24T02:11:10.498Z,98254.05
2019-03-24T02:13:38.988Z,98251.05
2019-03-24T02:16:09.675Z,98254.52
2019-03-24T02:18:37.863Z,98253.69
2019-03-24T02:21:06.296Z,98254.55
2019-03-24T02:23:34.683Z,98251.12
2019-03-24T02:26:03.139Z,98256.69
2019-03-24T02:28:31.596Z,98256.30
2019-03-24T02:31:00.025Z,98256.30
2019-03-24T02:33:28.412Z,98254.58
2019-03-24T02:35:56.888Z,98254.19
2019-03-24T02:38:25.306Z,98247.80
2019-03-24T02:40:53.727Z,98253.77
2019-03-24T02:43:22.146Z,98248.63
2019-03-24T02:45:50.575Z,98255.05
2019-03-24T02:48:18.998Z,98255.91
2019-03-24T02:50:47.430Z,98250.77
2019-03-24T02:53:15.885Z,98250.38
2019-03-24T02:55:44.285Z,98249.09
2019-03-24T02:58:12.723Z,98243.95
2019-03-24T03:00:41.171Z,98242.67
2019-03-24T03:03:09.661Z,98240.11
2019-03-24T03:05:38.101Z,98238.40
2019-03-24T03:08:06.506Z,98242.70
2019-03-24T03:10:34.948Z,98241.83
2019-03-24T03:13:03.354Z,98239.69
2019-03-24T03:15:31.799Z,98240.14
2019-03-24T03:18:00.214Z,98236.69
2019-03-24T03:20:28.609Z,98233.72
2019-03-24T03:22:57.006Z,98237.57
2019-03-24T03:25:25.473Z,98230.31
2019-03-24T03:27:53.875Z,98234.58
2019-03-24T03:30:22.321Z,98235.02
2019-03-24T03:32:50.721Z,98231.61
2019-03-24T03:35:19.107Z,98234.17
2019-03-24T03:37:47.501Z,98240.16
2019-03-24T03:40:16.164Z,98241.00
2019-03-24T03:42:44.690Z,98237.59
2019-03-24T03:45:14.969Z,98243.17
2019-03-24T03:47:43.363Z,98237.16
2019-03-24T03:50:12.037Z,98240.61
2019-03-24T03:52:40.455Z,98241.02
2019-03-24T03:55:08.964Z,98235.89
2019-03-24T03:57:37.351Z,98229.07
2019-03-24T04:00:09.723Z,98225.64
2019-03-24T04:02:38.129Z,98226.92
2019-03-24T04:05:07.160Z,98229.08
2019-03-24T04:07:35.577Z,98224.80
2019-03-24T04:10:04.896Z,98227.81
2019-03-24T04:12:33.290Z,98222.67
2019-03-24T04:15:01.768Z,98225.25
2019-03-24T04:17:30.169Z,98223.53
2019-03-24T04:19:58.585Z,98227.81
2019-03-24T04:22:26.964Z,98225.65
2019-03-24T04:24:55.363Z,98225.25
2019-03-24T04:27:23.787Z,98225.25
2019-03-24T04:29:52.269Z,98221.84
2019-03-24T04:32:20.664Z,98225.70
2019-03-24T04:34:49.060Z,98222.69
2019-03-24T04:37:17.454Z,98229.11
2019-03-24T04:39:45.882Z,98227.00
2019-03-24T04:42:14.287Z,98226.56
2019-03-24T04:44:42.796Z,98221.43
2019-03-24T04:47:16.601Z,98223.16
2019-03-24T04:49:41.433Z,98220.16
2019-03-24T04:52:09.847Z,98222.28
2019-03-24T04:54:38.356Z,98216.75
2019-03-24T04:57:06.718Z,98215.47
2019-03-24T04:59:35.108Z,98217.59
2019-03-24T05:02:03.498Z,98220.61
2019-03-24T05:04:31.916Z,98224.91
2019-03-24T05:07:00.285Z,98218.91
2019-03-24T05:09:28.747Z,98224.04
2019-03-24T05:11:57.148Z,98224.05
2019-03-24T05:14:25.543Z,98222.37
2019-03-24T05:16:53.963Z,98231.75
2019-03-24T05:19:22.337Z,98227.91
2019-03-24T05:21:50.884Z,98226.63
2019-03-24T05:24:19.344Z,98224.50
2019-03-24T05:26:47.766Z,98235.61
2019-03-24T05:29:16.164Z,98226.63
2019-03-24T05:31:44.561Z,98234.31
2019-03-24T05:34:12.952Z,98237.76
2019-03-24T05:36:41.377Z,98230.91
2019-03-24T05:39:09.913Z,98230.89
2019-03-24T05:41:38.504Z,98227.88
2019-03-24T05:44:06.927Z,98225.76
2019-03-24T05:46:35.333Z,98187.32
2019-03-24T05:49:03.780Z,98224.91
2019-03-24T05:51:32.173Z,98219.78
2019-03-24T05:54:00.596Z,98218.89
2019-03-24T05:56:28.961Z,98216.33
2019-03-24T05:58:57.410Z,98213.75
2019-03-24T06:01:25.847Z,98208.61
2019-03-24T06:03:54.354Z,98209.44
2019-03-24T06:06:22.737Z,98211.14
2019-03-24T06:08:51.134Z,98211.13
2019-03-24T06:11:19.525Z,98207.66
2019-03-24T06:13:47.935Z,98200.38
2019-03-24T06:16:16.354Z,98208.91
2019-03-24T06:18:44.817Z,98207.60
2019-03-24T06:21:13.313Z,98200.31
2019-03-24T06:23:41.745Z,98205.00
2019-03-24T06:26:10.132Z,98207.57
2019-03-24T06:28:38.528Z,98203.27
2019-03-24T06:31:06.997Z,98200.68
2019-03-24T06:33:35.469Z,98200.66
2019-03-24T06:36:03.957Z,98200.64
2019-03-24T06:38:32.345Z,98197.20
2019-03-24T06:41:00.752Z,98199.76
2019-03-24T06:43:29.285Z,98192.43
2019-03-24T06:45:57.680Z,98191.14
2019-03-24T06:48:26.145Z,98190.26
2019-03-24T06:50:54.551Z,98197.06
2019-03-24T06:53:23.061Z,98186.77
2019-03-24T06:55:51.460Z,98191.89
2019-03-24T06:58:19.922Z,98188.45
2019-03-24T07:00:48.330Z,98184.10
2019-03-24T07:03:16.723Z,98184.89
2019-03-24T07:05:45.124Z,98188.30
2019-03-24T07:08:13.503Z,98191.66
2019-03-24T07:10:42.802Z,98189.89
2019-03-24T07:13:11.266Z,98200.49
2019-03-24T07:15:39.779Z,98193.16
2019-03-24T07:18:08.929Z,98190.98
2019-03-24T07:20:37.382Z,98195.64
2019-03-24T07:23:07.695Z,98193.43
2019-03-24T07:25:36.108Z,98190.80
2019-03-24T07:28:04.584Z,98189.86
2019-03-24T07:30:32.972Z,98193.22
2019-03-24T07:33:01.359Z,98190.58
2019-03-24T07:35:29.778Z,98194.77
2019-03-24T07:37:58.172Z,98188.66
2019-03-24T07:40:26.557Z,98201.03
2019-03-24T07:42:55.024Z,98197.95
2019-03-24T07:45:23.428Z,98201.76
2019-03-24T07:47:52.183Z,98200.84
2019-03-24T07:50:20.641Z,98196.48
2019-03-24T07:52:49.026Z,98193.00
2019-03-24T07:55:17.434Z,98189.08
2019-03-24T07:57:45.876Z,98186.00
2019-03-24T08:00:15.870Z,98187.19
2019-03-24T08:02:51.643Z,98181.13
2019-03-24T08:05:20.056Z,98181.48
2019-03-24T08:07:48.495Z,98176.23
2019-03-24T08:10:16.899Z,98176.17
2019-03-24T08:12:45.316Z,98172.28
2019-03-24T08:15:14.167Z,98170.91
2019-03-24T08:17:42.609Z,98169.91
2019-03-24T08:20:12.360Z,98172.83
2019-03-24T08:22:40.956Z,98161.92
2019-03-24T08:25:09.537Z,98166.16
2019-03-24T08:27:38.094Z,98162.73
2019-03-24T08:30:07.431Z,98162.14
2019-03-24T08:32:35.916Z,98161.64
2019-03-24T08:35:05.815Z,98167.13
2019-03-24T08:37:34.261Z,98168.31
2019-03-24T08:40:02.858Z,98171.70
2019-03-24T08:42:31.272Z,98172.52
2019-03-24T08:44:59.665Z,98171.97
2019-03-24T08:47:28.075Z,98163.22
2019-03-24T08:49:56.460Z,98163.02
2019-03-24T08:52:24.899Z,98158.59
2019-03-24T08:54:53.413Z,98160.58
2019-03-24T08:57:21.809Z,98160.03
2019-03-24T08:59:50.204Z,98160.34
2019-03-24T09:02:18.664Z,98160.22
2019-03-24T09:04:47.108Z,98155.73
2019-03-24T09:07:15.532Z,98152.12
2019-03-24T09:09:43.942Z,98141.95
2019-03-24T09:12:12.375Z,98141.44
2019-03-24T09:14:40.784Z,98136.95
2019-03-24T09:17:10.068Z,98132.48
2019-03-24T09:19:38.549Z,98136.67
2019-03-24T09:22:06.984Z,98136.44
2019-03-24T09:24:35.361Z,98133.67
2019-03-24T09:27:03.781Z,98133.56
2019-03-24T09:29:32.188Z,98131.71
2019-03-24T09:32:00.602Z,98129.85
2019-03-24T09:34:29.034Z,98124.19
2019-03-24T09:36:57.482Z,98125.27
2019-03-24T09:39:25.952Z,98112.22
2019-03-24T09:41:54.408Z,98109.77
2019-03-24T09:44:22.827Z,98110.00
2019-03-24T09:46:51.262Z,98098.66
2019-03-24T09:49:19.674Z,98096.82
2019-03-24T09:51:48.132Z,98089.81
2019-03-24T09:54:16.548Z,98089.86
2019-03-24T09:56:45.073Z,98081.93
2019-03-24T09:59:13.523Z,98079.77
2019-03-24T10:01:41.953Z,98078.81
2019-03-24T10:04:10.372Z,98071.87
2019-03-24T10:06:38.816Z,98067.16
2019-03-24T10:09:07.381Z,98066.27
2019-03-24T10:11:35.808Z,98063.92
2019-03-24T10:14:04.201Z,98059.75
2019-03-24T10:16:32.603Z,98051.42
2019-03-24T10:19:01.047Z,98048.75
2019-03-24T10:21:29.549Z,98049.22
2019-03-24T10:23:58.018Z,98044.89
2019-03-24T10:26:26.424Z,98043.91
2019-03-24T10:28:54.879Z,98040.34
2019-03-24T10:31:23.309Z,98038.86
2019-03-24T10:33:51.731Z,98035.35
2019-03-24T10:36:20.121Z,98031.37
2019-03-24T10:38:48.532Z,98031.59
2019-03-24T10:41:16.952Z,98025.70
2019-03-24T10:43:45.354Z,98026.20
2019-03-24T10:46:13.764Z,98020.98
2019-03-24T10:48:42.204Z,98018.22
2019-03-24T10:51:10.672Z,98021.63
2019-03-24T10:53:39.090Z,98014.86
2019-03-24T10:56:07.484Z,98017.66
2019-03-24T10:58:36.017Z,98014.80
2019-03-24T11:01:04.515Z,98004.58
2019-03-24T11:03:32.900Z,98003.89
2019-03-24T11:06:01.293Z,97996.54
2019-03-24T11:08:29.811Z,97996.58
2019-03-24T11:10:58.302Z,97990.96
2019-03-24T11:13:26.738Z,97989.95
2019-03-24T11:15:55.170Z,97987.24
2019-03-24T11:18:23.562Z,97980.64
2019-03-24T11:20:51.945Z,97981.34
2019-03-24T11:23:20.349Z,97971.56
2019-03-24T11:25:48.737Z,97968.33
2019-03-24T11:28:19.172Z,97971.22
2019-03-24T11:30:47.247Z,97972.77
2019-03-24T11:33:15.693Z,97967.63
2019-03-24T11:35:44.089Z,97964.20
2019-03-24T11:38:12.487Z,97967.28
2019-03-24T11:40:40.877Z,97963.48
2019-03-24T11:43:10.917Z,97960.09
2019-03-24T11:45:39.332Z,97956.69
2019-03-24T11:48:07.778Z,97957.65
2019-03-24T11:50:36.200Z,97954.21
2019-03-24T11:53:04.668Z,97950.44
2019-03-24T11:55:33.056Z,97943.94
2019-03-24T11:58:06.099Z,97948.51
2019-03-24T12:00:36.558Z,97935.73
2019-03-24T12:03:05.055Z,97929.77
2019-03-24T12:05:33.521Z,97930.80
2019-03-24T12:08:02.105Z,97926.91
2019-03-24T12:10:30.490Z,97916.19
2019-03-24T12:12:58.876Z,97923.93
2019-03-24T12:15:27.277Z,97910.58
2019-03-24T12:17:55.673Z,97915.28
2019-03-24T12:20:24.065Z,97903.23
2019-03-24T12:22:52.457Z,97895.94
2019-03-24T12:25:20.848Z,97893.83
2019-03-24T12:27:49.248Z,97897.22
2019-03-24T12:30:17.875Z,97890.10
2019-03-24T12:32:46.308Z,97890.55
2019-03-24T12:35:14.749Z,97884.96
2019-03-24T12:37:43.096Z,97876.90
2019-03-24T12:40:11.834Z,97878.67
2019-03-24T12:42:40.297Z,97875.09
2019-03-24T12:45:10.062Z,97868.29
2019-03-24T12:47:38.447Z,97861.59
2019-03-24T12:50:09.835Z,97868.57
2019-03-24T12:52:38.549Z,97859.57
2019-03-24T12:55:07.507Z,97861.85
2019-03-24T12:57:35.878Z,97857.88
2019-03-24T13:00:07.293Z,97844.80
2019-03-24T13:02:35.660Z,97837.90
2019-03-24T13:05:06.544Z,97841.14
2019-03-24T13:07:34.931Z,97832.84
2019-03-24T13:10:05.075Z,97823.88
2019-03-24T13:12:33.466Z,97808.39
2019-03-24T13:15:01.880Z,97820.18
2019-03-24T13:17:30.266Z,97822.36
2019-03-24T13:19:58.703Z,97819.76
2019-03-24T13:22:27.078Z,97810.11
2019-03-24T13:24:55.518Z,97812.52
2019-03-24T13:27:23.861Z,97811.17
2019-03-24T13:29:52.262Z,97815.48
2019-03-24T13:32:20.650Z,97809.50
2019-03-24T13:34:49.043Z,97816.03
2019-03-24T13:37:17.434Z,97791.13
2019-03-24T13:39:45.822Z,97792.98
2019-03-24T13:42:14.220Z,97785.68
2019-03-24T13:44:42.615Z,97783.47
2019-03-24T13:47:11.021Z,97786.62
2019-03-24T13:49:39.410Z,97783.07
2019-03-24T13:52:07.805Z,97776.88
2019-03-24T13:54:36.196Z,97768.20
2019-03-24T13:57:04.601Z,97769.58
2019-03-24T13:59:33.010Z,97767.08
2019-03-24T14:02:01.405Z,97767.05
2019-03-24T14:04:29.802Z,97762.91
2019-03-24T14:06:58.204Z,97755.61
2019-03-24T14:09:26.596Z,97757.20
2019-03-24T14:11:54.991Z,97750.11
2019-03-24T14:14:23.379Z,97750.09
2019-03-24T14:16:51.786Z,97744.80
2019-03-24T14:19:20.186Z,97736.16
2019-03-24T14:21:49.466Z,97740.27
2019-03-24T14:24:17.862Z,97737.00
2019-03-24T14:26:46.252Z,97737.27
2019-03-24T14:29:14.639Z,97738.21
2019-03-24T14:31:43.034Z,97734.64
2019-03-24T14:34:11.425Z,97735.42
2019-03-24T14:36:39.817Z,97733.91
2019-03-24T14:39:08.228Z,97731.29
2019-03-24T14:41:36.639Z,97725.41
2019-03-24T14:44:05.148Z,97724.63
2019-03-24T14:46:33.538Z,97725.58
2019-03-24T14:49:01.928Z,97717.05
2019-03-24T14:51:30.331Z,97717.14
2019-03-24T14:53:58.737Z,97722.58
2019-03-24T14:56:27.204Z,97720.23
2019-03-24T14:58:55.601Z,97723.23
2019-03-24T15:01:23.993Z,97719.09
2019-03-24T15:03:52.458Z,97724.58
2019-03-24T15:06:20.850Z,97722.41
2019-03-24T15:08:49.242Z,97725.02
2019-03-24T15:11:17.706Z,97718.66
2019-03-24T15:13:46.104Z,97720.34
2019-03-24T15:16:14.497Z,97717.09
2019-03-24T15:18:42.978Z,97717.56
2019-03-24T15:21:11.660Z,97719.79
2019-03-24T15:23:41.022Z,97718.55
2019-03-24T15:26:09.422Z,97718.55
2019-03-24T15:28:37.803Z,97722.95
2019-03-24T15:31:06.207Z,97725.09
2019-03-24T15:33:34.598Z,97721.25
2019-03-24T15:36:03.004Z,97719.39
2019-03-24T15:38:31.429Z,97715.94
2019-03-24T15:40:59.816Z,97716.86
2019-03-24T15:43:28.208Z,97720.16
2019-03-24T15:45:56.618Z,97717.55
2019-03-24T15:48:25.017Z,97722.22
2019-03-24T15:50:53.406Z,97729.19
2019-03-24T15:53:21.798Z,97727.78
2019-03-24T15:55:50.187Z,97724.20
2019-03-24T15:58:18.614Z,97729.37
2019-03-24T16:00:47.814Z,97729.44
2019-03-24T16:03:16.225Z,97729.86
2019-03-24T16:05:45.665Z,97727.31
2019-03-24T16:08:14.172Z,97714.74
2019-03-24T16:10:42.566Z,97729.36
2019-03-24T16:13:11.044Z,97729.26
2019-03-24T16:15:39.506Z,97731.67
2019-03-24T16:18:07.909Z,97741.33
2019-03-24T16:20:36.309Z,97734.69
2019-03-24T16:23:04.779Z,97735.76
2019-03-24T16:25:33.171Z,97732.95
2019-03-24T16:28:01.588Z,97727.58
2019-03-24T16:30:30.086Z,97736.51
2019-03-24T16:32:58.517Z,97737.19
2019-03-24T16:35:26.959Z,97737.73
2019-03-24T16:37:55.374Z,97736.67
2019-03-24T16:40:23.850Z,97739.13
2019-03-24T16:42:52.255Z,97737.84
2019-03-24T16:45:20.716Z,97734.56
2019-03-24T16:47:49.106Z,97731.88
2019-03-24T16:50:17.498Z,97734.03
2019-03-24T16:52:45.893Z,97725.37
2019-03-24T16:55:14.295Z,97726.61
2019-03-24T16:57:42.735Z,97731.81
2019-03-24T17:00:11.392Z,97735.47
2019-03-24T17:02:39.776Z,97739.75
2019-03-24T17:05:08.248Z,97745.26
2019-03-24T17:07:36.646Z,97741.17
2019-03-24T17:10:06.870Z,97748.92
2019-03-24T17:12:35.290Z,97753.95
2019-03-24T17:15:05.053Z,97758.42
2019-03-24T17:17:33.441Z,97757.81
2019-03-24T17:20:01.860Z,97766.58
2019-03-24T17:22:30.318Z,97759.05
2019-03-24T17:24:58.643Z,97769.52
2019-03-24T17:27:27.041Z,97764.12
2019-03-24T17:29:55.438Z,97774.19
2019-03-24T17:32:23.823Z,97777.47
2019-03-24T17:34:52.221Z,97779.04
2019-03-24T17:37:20.612Z,97783.34
2019-03-24T17:39:49.010Z,97777.91
2019-03-24T17:42:17.410Z,97782.20
2019-03-24T17:44:45.817Z,97784.30
2019-03-24T17:47:14.247Z,97796.70
2019-03-24T17:49:42.648Z,97792.25
2019-03-24T17:52:11.042Z,97797.70
2019-03-24T17:54:39.468Z,97801.03
2019-03-24T17:57:07.930Z,97811.61
2019-03-24T17:59:36.333Z,97809.86
2019-03-24T18:02:13.983Z,97808.80
2019-03-24T18:04:35.365Z,97809.05
2019-03-24T18:07:03.792Z,97814.18
2019-03-24T18:09:32.205Z,97819.16
2019-03-24T18:12:00.671Z,97826.70
2019-03-24T18:14:29.088Z,97822.27
2019-03-24T18:16:57.486Z,97823.34
2019-03-24T18:19:25.883Z,97823.23
2019-03-24T18:21:54.319Z,97828.69
2019-03-24T18:24:22.693Z,97828.52
2019-03-24T18:26:51.082Z,97840.88
2019-03-24T18:29:19.472Z,97823.34
2019-03-24T18:31:47.870Z,97845.52
2019-03-24T18:34:16.287Z,97850.98
2019-03-24T18:36:44.707Z,97843.43
2019-03-24T18:39:13.098Z,97847.02
2019-03-24T18:41:41.492Z,97842.46
2019-03-24T18:44:09.883Z,97838.70
2019-03-24T18:46:38.278Z,97835.50
2019-03-24T18:49:06.665Z,97843.09
2019-03-24T18:51:35.120Z,97843.70
2019-03-24T18:54:03.537Z,97846.87
2019-03-24T18:56:31.932Z,97850.51
2019-03-24T18:59:00.365Z,97852.47
2019-03-24T19:01:28.752Z,97855.12
2019-03-24T19:03:57.149Z,97857.08
2019-03-24T19:06:25.543Z,97854.13
2019-03-24T19:08:53.938Z,97855.63
2019-03-24T19:11:22.407Z,97866.28
2019-03-24T19:13:50.810Z,97860.84
2019-03-24T19:16:19.213Z,97865.34
2019-03-24T19:18:47.631Z,97868.92
2019-03-24T19:21:16.032Z,97871.70
2019-03-24T19:23:44.455Z,97875.69
2019-03-24T19:26:12.855Z,97875.78
2019-03-24T19:28:41.243Z,97872.50
2019-03-24T19:31:09.639Z,97883.00
2019-03-24T19:33:38.175Z,97883.47
2019-03-24T19:36:06.638Z,97879.12
2019-03-24T19:38:35.092Z,97882.67
2019-03-24T19:41:03.489Z,97879.41
2019-03-24T19:43:31.896Z,97878.66
2019-03-24T19:46:00.344Z,97873.63
2019-03-24T19:48:28.696Z,97874.59
2019-03-24T19:50:57.091Z,97882.87
2019-03-24T19:53:25.491Z,97856.71
2019-03-24T19:55:53.949Z,97881.61
2019-03-24T19:58:22.368Z,97879.71
2019-03-24T20:00:50.764Z,97887.61
2019-03-24T20:03:19.158Z,97885.11
2019-03-24T20:05:47.549Z,97887.38
2019-03-24T20:08:16.922Z,97895.19
2019-03-24T20:10:45.313Z,97889.63
2019-03-24T20:13:14.644Z,97872.80
2019-03-24T20:15:43.023Z,97888.05
2019-03-24T20:18:11.412Z,97885.97
2019-03-24T20:20:39.869Z,97886.44
2019-03-24T20:23:08.303Z,97882.22
2019-03-24T20:25:36.694Z,97882.72
2019-03-24T20:28:05.164Z,97883.73
2019-03-24T20:30:33.556Z,97879.94
2019-03-24T20:33:01.988Z,97882.61
2019-03-24T20:35:30.361Z,97879.31
2019-03-24T20:37:58.769Z,97877.69
2019-03-24T20:40:27.230Z,97872.69
2019-03-24T20:42:55.620Z,97879.23
2019-03-24T20:45:24.064Z,97884.89
2019-03-24T20:47:52.452Z,97887.06
2019-03-24T20:50:20.848Z,97876.34
2019-03-24T20:52:49.237Z,97858.16
2019-03-24T20:55:17.621Z,97870.62
2019-03-24T20:57:46.011Z,97868.20
2019-03-24T21:00:14.939Z,97858.02
2019-03-24T21:02:43.339Z,97855.48
2019-03-24T21:05:11.889Z,97855.98
2019-03-24T21:07:40.279Z,97854.39
2019-03-24T21:10:08.903Z,97862.30
2019-03-24T21:12:37.380Z,97862.53
2019-03-24T21:15:08.009Z,97864.80
2019-03-24T21:17:36.407Z,97860.97
2019-03-24T21:20:07.222Z,97861.05
2019-03-24T21:22:35.676Z,97859.34
2019-03-24T21:25:05.604Z,97857.20
2019-03-24T21:27:33.996Z,97858.91
2019-03-24T21:30:03.515Z,97847.67
2019-03-24T21:32:31.908Z,97849.01
2019-03-24T21:35:00.472Z,97848.20
2019-03-24T21:37:28.927Z,97844.52
2019-03-24T21:39:57.299Z,97842.02
2019-03-24T21:42:25.735Z,97840.39
2019-03-24T21:44:54.089Z,97844.78
2019-03-24T21:47:22.472Z,97844.82
2019-03-24T21:49:50.895Z,97841.59
2019-03-24T21:52:19.274Z,97844.31
2019-03-24T21:54:47.663Z,97843.09
2019-03-24T21:57:16.058Z,97841.49
2019-03-24T21:59:44.454Z,97847.11
2019-03-24T22:02:12.911Z,97847.21
2019-03-24T22:04:41.320Z,97853.34
2019-03-24T22:07:09.711Z,97855.20
2019-03-24T22:09:38.123Z,97858.75
2019-03-24T22:12:06.507Z,97854.98
2019-03-24T22:14:34.900Z,97851.95
2019-03-24T22:17:03.289Z,97851.08
2019-03-24T22:19:31.734Z,97855.36
2019-03-24T22:22:00.094Z,97854.53
2019-03-24T22:24:28.494Z,97851.56
2019-03-24T22:26:56.874Z,97848.63
2019-03-24T22:29:25.292Z,97849.16
2019-03-24T22:31:53.655Z,97847.12
2019-03-24T22:34:22.046Z,97845.91
2019-03-24T22:36:50.451Z,97851.13
2019-03-24T22:39:18.840Z,97845.13
2019-03-24T22:41:47.339Z,97836.11
2019-03-24T22:44:15.699Z,97834.78
2019-03-24T22:46:44.190Z,97837.78
2019-03-24T22:49:12.586Z,97842.84
2019-03-24T22:51:40.967Z,97835.13
2019-03-24T22:54:09.365Z,97830.36
2019-03-24T22:56:37.831Z,97816.56
2019-03-24T22:59:06.238Z,97814.41
2019-03-24T23:01:34.694Z,97814.41
2019-03-24T23:04:03.110Z,97807.47
2019-03-24T23:06:31.519Z,97803.15
2019-03-24T23:08:59.928Z,97794.55
2019-03-24T23:11:28.317Z,97807.02
2019-03-24T23:13:56.714Z,97795.41
2019-03-24T23:16:25.102Z,97803.98
2019-03-24T23:18:53.504Z,97801.44
2019-03-24T23:21:21.895Z,97806.63
2019-03-24T23:23:50.295Z,97807.95
2019-03-24T23:26:18.688Z,97800.70
2019-03-24T23:28:47.084Z,97807.19
2019-03-24T23:31:15.469Z,97800.73
2019-03-24T23:33:43.861Z,97795.58
2019-03-24T23:36:12.262Z,97792.97
2019-03-24T23:38:40.713Z,97785.23
2019-03-24T23:41:09.095Z,97795.55
2019-03-24T23:43:37.496Z,97789.10
2019-03-24T23:46:05.958Z,97789.48
2019-03-24T23:48:34.334Z,97792.48
2019-03-24T23:51:02.726Z,97792.91
2019-03-24T23:53:31.117Z,97797.58
2019-03-24T23:55:59.516Z,97791.96
2019-03-24T23:58:39.956Z,97791.09
